Effingham, Illinois
Current Conditions -  °F | °C
As of 12:15 PM on Saturday 27 Dec 2014 (Local Time) from K1H2 Reporting Station
Haze Haze  
Wind Chill: 47°   Ceiling: 300
Heat Index: 49°   Visibility: 3mi
Dew Point: 46°   Wind: 5mph
Humidity: 92%   Direction: 210°SSW
Pressure: 30.11"   Gusts: NA
Location:  39.12°N, 88.54°W
Report Text: K1H2 271815Z AUTO 21004KT 3SM BR OVC003 09/08 A3011 RMK AO2 T00930080
Loading
Personal Weather Stations






























Interactive Weather Map New forecast layout! Learn more

10-Day Weather Forecast

Advertisements
Track Severe Weather on mobile